createdAt,value
2022-11-09T00:01:28.993Z,12.26
2022-11-09T00:06:32.037Z,12.22
2022-11-09T00:11:33.686Z,12.17
2022-11-09T00:16:35.327Z,12.13
2022-11-09T00:21:36.864Z,12.10
2022-11-09T00:26:38.337Z,12.05
2022-11-09T00:31:39.857Z,12.01
2022-11-09T00:36:42.194Z,11.95
2022-11-09T00:41:43.741Z,11.91
2022-11-09T00:46:45.435Z,11.87
2022-11-09T00:51:47.016Z,11.84
2022-11-09T00:56:48.814Z,11.79
2022-11-09T01:01:50.462Z,11.78
2022-11-09T01:06:53.324Z,11.76
2022-11-09T01:11:55.010Z,11.73
2022-11-09T01:16:57.356Z,11.71
2022-11-09T01:22:00.966Z,11.67
2022-11-09T01:27:03.339Z,11.65
2022-11-09T01:32:05.441Z,11.66
2022-11-09T01:37:07.013Z,11.67
2022-11-09T01:42:08.550Z,11.65
2022-11-09T01:47:24.239Z,11.63
2022-11-09T01:52:32.088Z,11.62
2022-11-09T01:57:38.303Z,11.61
2022-11-09T02:02:44.771Z,11.62
2022-11-09T02:07:46.692Z,11.60
2022-11-09T02:12:48.936Z,11.61
2022-11-09T02:17:53.545Z,11.60
2022-11-09T02:22:56.391Z,11.58
2022-11-09T02:27:57.970Z,11.59
2022-11-09T02:32:59.569Z,11.57
2022-11-09T02:38:01.718Z,11.56
2022-11-09T02:43:07.358Z,11.56
2022-11-09T02:48:09.005Z,11.53
2022-11-09T02:53:12.085Z,11.53
2022-11-09T02:58:17.867Z,11.52
2022-11-09T03:03:19.850Z,11.49
2022-11-09T03:08:21.890Z,11.46
2022-11-09T03:13:26.060Z,11.42
2022-11-09T03:18:27.923Z,11.38
2022-11-09T03:23:29.659Z,11.38
2022-11-09T03:28:32.023Z,11.36
2022-11-09T03:33:33.954Z,11.37
2022-11-09T03:38:35.873Z,11.36
2022-11-09T03:43:38.128Z,11.39
2022-11-09T03:48:39.701Z,11.39
2022-11-09T03:53:41.214Z,11.36
2022-11-09T03:58:42.742Z,11.35
2022-11-09T04:03:44.258Z,11.35
2022-11-09T04:08:50.959Z,11.34
2022-11-09T04:13:53.917Z,11.33
2022-11-09T04:18:55.391Z,11.31
2022-11-09T04:23:56.908Z,11.29
2022-11-09T04:28:58.365Z,11.26
2022-11-09T04:34:00.026Z,11.23
2022-11-09T04:39:01.665Z,11.21
2022-11-09T04:44:04.005Z,11.18
2022-11-09T04:49:05.558Z,11.17
2022-11-09T04:54:07.189Z,11.14
2022-11-09T04:59:08.797Z,11.12
2022-11-09T05:04:10.426Z,11.09
2022-11-09T05:09:12.131Z,11.10
2022-11-09T05:14:13.796Z,11.08
2022-11-09T05:19:15.345Z,11.06
2022-11-09T05:24:16.897Z,11.06
2022-11-09T05:29:18.369Z,11.00
2022-11-09T05:34:19.881Z,10.99
2022-11-09T05:39:21.379Z,10.97
2022-11-09T05:44:22.934Z,10.97
2022-11-09T05:49:24.706Z,10.93
2022-11-09T05:54:26.249Z,10.93
2022-11-09T05:59:27.746Z,10.92
2022-11-09T06:04:29.314Z,10.92
2022-11-09T06:09:30.868Z,10.92
2022-11-09T06:14:32.367Z,10.91
2022-11-09T06:19:33.920Z,10.89
2022-11-09T06:24:35.504Z,10.90
2022-11-09T06:29:37.072Z,10.84
2022-11-09T06:34:38.552Z,10.80
2022-11-09T06:39:40.094Z,10.79
2022-11-09T06:44:41.579Z,10.77
2022-11-09T06:49:43.139Z,10.72
2022-11-09T06:54:44.721Z,10.64
2022-11-09T06:59:46.260Z,10.62
2022-11-09T07:04:51.424Z,10.64
2022-11-09T07:09:52.966Z,10.66
2022-11-09T07:14:54.455Z,10.66
2022-11-09T07:19:55.945Z,10.70
2022-11-09T07:24:57.445Z,10.68
2022-11-09T07:29:58.934Z,10.71
2022-11-09T07:35:00.486Z,10.74
2022-11-09T07:40:02.178Z,10.80
2022-11-09T07:45:04.097Z,10.84
2022-11-09T07:50:06.094Z,10.88
2022-11-09T07:55:08.107Z,10.93
2022-11-09T08:00:11.115Z,10.97
2022-11-09T08:05:15.648Z,11.01
2022-11-09T08:10:17.275Z,11.02
2022-11-09T08:15:18.806Z,11.07
2022-11-09T08:20:20.394Z,11.11
2022-11-09T08:25:22.190Z,11.15
2022-11-09T08:30:24.643Z,11.20
2022-11-09T08:35:26.774Z,11.25
2022-11-09T08:40:28.904Z,11.27
2022-11-09T08:45:33.116Z,11.34
2022-11-09T08:50:37.736Z,11.36
2022-11-09T08:55:39.299Z,11.36
2022-11-09T09:00:40.858Z,11.40
2022-11-09T09:05:42.366Z,11.42
2022-11-09T09:10:43.898Z,11.43
2022-11-09T09:15:45.429Z,11.48
2022-11-09T09:20:46.945Z,11.52
2022-11-09T09:25:48.448Z,11.54
2022-11-09T09:30:51.153Z,11.62
2022-11-09T09:35:55.631Z,11.67
2022-11-09T09:40:59.606Z,11.74
2022-11-09T09:46:05.070Z,11.84
2022-11-09T09:51:18.744Z,11.88
2022-11-09T09:56:28.484Z,11.95
2022-11-09T10:01:42.042Z,11.96
2022-11-09T10:06:59.690Z,11.96
2022-11-09T10:12:20.475Z,12.00
2022-11-09T10:18:04.865Z,12.04
2022-11-09T10:23:24.794Z,12.10
2022-11-09T10:28:42.328Z,12.18
2022-11-09T10:34:00.222Z,12.28
2022-11-09T10:39:01.919Z,12.37
2022-11-09T10:44:21.768Z,12.43
2022-11-09T10:49:42.948Z,12.47
2022-11-09T10:55:24.306Z,12.52
2022-11-09T11:01:24.675Z,12.57
2022-11-09T11:06:44.620Z,12.63
2022-11-09T11:12:17.410Z,12.73
2022-11-09T11:17:37.932Z,12.79
2022-11-09T11:23:16.574Z,12.83
2022-11-09T11:28:49.227Z,12.80
2022-11-09T11:34:32.019Z,12.87
2022-11-09T11:40:07.771Z,12.93
2022-11-09T11:45:42.421Z,12.94
2022-11-09T11:51:08.727Z,12.97
2022-11-09T11:56:36.297Z,12.97
2022-11-09T12:02:15.320Z,13.06
2022-11-09T12:08:06.234Z,13.13
2022-11-09T12:13:54.183Z,13.25
2022-11-09T12:19:36.150Z,13.27
2022-11-09T12:25:15.027Z,13.30
2022-11-09T12:30:52.909Z,13.32
2022-11-09T12:36:41.490Z,13.34
2022-11-09T12:42:11.244Z,13.38
2022-11-09T12:47:40.239Z,13.42
2022-11-09T12:53:03.531Z,13.49
2022-11-09T12:58:35.060Z,13.52
2022-11-09T13:03:58.473Z,13.55
2022-11-09T13:09:24.437Z,13.57
2022-11-09T13:14:45.578Z,13.60
2022-11-09T13:20:53.887Z,13.69
2022-11-09T13:26:46.604Z,13.73
2022-11-09T13:32:12.530Z,13.80
2022-11-09T13:37:41.916Z,13.90
2022-11-09T13:43:07.993Z,14.00
2022-11-09T13:48:36.245Z,14.09
2022-11-09T13:53:56.607Z,14.18
2022-11-09T13:59:23.335Z,14.27
2022-11-09T14:04:44.273Z,14.34
2022-11-09T14:10:31.734Z,14.35
2022-11-09T14:16:03.101Z,14.42
2022-11-09T14:22:01.937Z,14.44
2022-11-09T14:27:23.456Z,14.43
2022-11-09T14:32:48.811Z,14.42
2022-11-09T14:38:24.874Z,14.38
2022-11-09T14:43:45.048Z,14.31
2022-11-09T14:49:05.052Z,14.26
2022-11-09T14:54:27.042Z,14.21
2022-11-09T14:59:47.957Z,14.13
2022-11-09T15:05:41.217Z,14.06
2022-11-09T15:11:01.261Z,13.99
2022-11-09T15:16:24.434Z,13.90
2022-11-09T15:21:44.631Z,13.82
2022-11-09T15:27:34.877Z,13.75
2022-11-09T15:32:55.090Z,13.68
2022-11-09T15:38:34.242Z,13.63
2022-11-09T15:43:54.418Z,13.57
2022-11-09T15:49:24.834Z,13.51
2022-11-09T15:54:46.915Z,13.44
2022-11-09T16:00:14.406Z,13.37
2022-11-09T16:05:38.033Z,13.31
2022-11-09T16:10:58.106Z,13.27
2022-11-09T16:16:18.539Z,13.26
2022-11-09T16:21:38.819Z,13.22
2022-11-09T16:26:58.858Z,13.19
2022-11-09T16:32:19.028Z,13.17
2022-11-09T16:37:40.474Z,13.13
2022-11-09T16:43:00.660Z,13.08
2022-11-09T16:48:21.127Z,13.06
2022-11-09T16:53:41.337Z,13.02
2022-11-09T16:59:01.671Z,12.97
2022-11-09T17:04:22.429Z,12.92
2022-11-09T17:09:42.511Z,12.88
2022-11-09T17:15:02.933Z,12.84
2022-11-09T17:20:24.038Z,12.80
2022-11-09T17:25:55.909Z,12.80
2022-11-09T17:31:18.662Z,12.77
2022-11-09T17:42:18.531Z,12.74
2022-11-09T17:47:38.707Z,12.73
2022-11-09T17:52:58.732Z,12.69
2022-11-09T17:58:19.284Z,12.72
2022-11-09T18:03:39.797Z,12.73
2022-11-09T18:09:34.314Z,12.70
2022-11-09T18:14:40.013Z,12.68
2022-11-09T18:20:00.305Z,12.66
2022-11-09T18:25:21.569Z,12.63
2022-11-09T18:30:41.939Z,12.58
2022-11-09T18:36:05.318Z,12.58
2022-11-09T18:41:26.309Z,12.54
2022-11-09T18:46:47.185Z,12.51
2022-11-09T18:52:07.154Z,12.50
2022-11-09T18:57:27.347Z,12.48
2022-11-09T19:02:47.680Z,12.49
2022-11-09T19:08:08.590Z,12.50
2022-11-09T19:13:28.556Z,12.51
2022-11-09T19:18:49.106Z,12.51
2022-11-09T19:24:13.414Z,12.50
2022-11-09T19:29:33.795Z,12.48
2022-11-09T19:34:54.108Z,12.48
2022-11-09T19:40:14.465Z,12.46
2022-11-09T19:45:42.692Z,12.47
2022-11-09T19:51:04.443Z,12.47
2022-11-09T19:56:26.749Z,12.48
2022-11-09T20:01:46.761Z,12.45
2022-11-09T20:07:06.877Z,12.46
2022-11-09T20:12:45.801Z,12.47
2022-11-09T20:18:06.409Z,12.48
2022-11-09T20:23:27.800Z,12.49
2022-11-09T20:28:48.327Z,12.49
2022-11-09T20:34:08.778Z,12.50
2022-11-09T20:39:29.285Z,12.52
2022-11-09T20:44:52.150Z,12.50
2022-11-09T20:50:12.817Z,12.52
2022-11-09T20:55:36.488Z,12.53
2022-11-09T21:01:04.489Z,12.55
2022-11-09T21:06:24.584Z,12.55
2022-11-09T21:12:03.699Z,12.54
2022-11-09T21:17:23.969Z,12.57
2022-11-09T21:23:02.714Z,12.59
2022-11-09T21:28:42.406Z,12.62
2022-11-09T21:34:02.872Z,12.63
2022-11-09T21:39:23.557Z,12.65
2022-11-09T21:44:43.863Z,12.65
2022-11-09T21:50:08.235Z,12.67
2022-11-09T21:55:31.578Z,12.68
2022-11-09T22:00:52.010Z,12.67
2022-11-09T22:06:14.258Z,12.68
2022-11-09T22:11:53.069Z,12.68
2022-11-09T22:17:13.651Z,12.67
2022-11-09T22:22:34.313Z,12.68
2022-11-09T22:27:55.534Z,12.68
2022-11-09T22:33:20.709Z,12.68
2022-11-09T22:38:43.729Z,12.67
2022-11-09T22:44:04.231Z,12.68
2022-11-09T22:49:24.683Z,12.66
2022-11-09T22:54:45.008Z,12.66
2022-11-09T23:00:06.122Z,12.66
2022-11-09T23:05:26.523Z,12.66
2022-11-09T23:10:54.942Z,12.64
2022-11-09T23:16:15.096Z,12.64
2022-11-09T23:21:37.286Z,12.64
2022-11-09T23:26:57.758Z,12.62
2022-11-09T23:32:17.857Z,12.63
2022-11-09T23:37:38.111Z,12.60
2022-11-09T23:43:05.343Z,12.57
2022-11-09T23:48:25.620Z,12.60
2022-11-09T23:53:45.868Z,12.64
2022-11-09T23:59:05.957Z,12.68
